Time,TemperatureF,DewpointF,PressureIn,WindDirection,WindDirectionDegrees,WindSpeedMPH,WindSpeedGustMPH,Humidity,HourlyPrecipIn,Conditions,Clouds,dailyrainin,SoftwareType,DateUTC
2013-07-06 00:10:00,80.1,71.8,30.10,SW,236,0.0,0.0,76,0.00,,,0.00,Wunderground v.1.15,2013-07-06 04:10:00,
2013-07-06 00:15:00,79.9,71.7,30.10,SSW,194,0.0,1.0,76,0.00,,,0.00,Wunderground v.1.15,2013-07-06 04:15:00,
2013-07-06 00:20:00,79.9,71.7,30.10,SSW,194,0.0,0.0,76,0.00,,,0.00,Wunderground v.1.15,2013-07-06 04:20:00,
2013-07-06 00:25:00,79.8,71.9,30.10,SSW,202,0.0,0.0,77,0.00,,,0.00,Wunderground v.1.15,2013-07-06 04:25:00,
2013-07-06 00:35:00,79.6,71.8,30.09,SSW,202,0.0,0.0,77,0.00,,,0.00,Wunderground v.1.15,2013-07-06 04:35:00,
2013-07-06 00:45:00,79.4,71.9,30.09,SSW,202,0.0,0.0,78,0.00,,,0.00,Wunderground v.1.15,2013-07-06 04:45:00,
2013-07-06 00:55:00,79.2,71.7,30.09,SSW,202,0.0,0.0,78,0.00,,,0.00,Wunderground v.1.15,2013-07-06 04:55:00,
2013-07-06 01:00:00,79.2,71.7,30.09,SSW,202,0.0,0.0,78,0.00,,,0.00,Wunderground v.1.15,2013-07-06 05:00:00,
2013-07-06 01:05:00,79.0,71.9,30.09,SSW,202,0.0,0.0,79,0.00,,,0.00,Wunderground v.1.15,2013-07-06 05:05:00,
2013-07-06 01:15:00,79.0,71.9,30.09,South,186,0.0,0.0,79,0.00,,,0.00,Wunderground v.1.15,2013-07-06 05:15:00,
2013-07-06 01:25:00,78.8,71.7,30.09,South,186,0.0,0.0,79,0.00,,,0.00,Wunderground v.1.15,2013-07-06 05:25:00,
2013-07-06 01:35:00,78.5,71.8,30.09,South,186,0.0,1.0,80,0.00,,,0.00,Wunderground v.1.15,2013-07-06 05:35:00,
2013-07-06 01:45:00,78.3,72.0,30.09,South,186,0.0,0.0,81,0.00,,,0.00,Wunderground v.1.15,2013-07-06 05:45:00,
2013-07-06 01:55:00,78.1,71.8,30.09,South,179,0.0,0.0,81,0.00,,,0.00,Wunderground v.1.15,2013-07-06 05:55:00,
2013-07-06 02:05:00,78.1,71.8,30.09,South,178,0.0,0.0,81,0.00,,,0.00,Wunderground v.1.15,2013-07-06 06:05:00,
2013-07-06 02:15:00,77.9,71.6,30.09,South,178,0.0,1.0,81,0.00,,,0.00,Wunderground v.1.15,2013-07-06 06:15:00,
2013-07-06 02:25:00,77.9,72.0,30.09,South,178,0.0,0.0,82,0.00,,,0.00,Wunderground v.1.15,2013-07-06 06:25:00,
2013-07-06 02:35:00,77.7,71.8,30.09,South,178,0.0,0.0,82,0.00,,,0.00,Wunderground v.1.15,2013-07-06 06:35:00,
2013-07-06 02:45:00,77.7,71.8,30.09,South,178,0.0,0.0,82,0.00,,,0.00,Wunderground v.1.15,2013-07-06 06:45:00,
2013-07-06 02:55:00,77.4,71.8,30.09,South,178,0.0,0.0,83,0.00,,,0.00,Wunderground v.1.15,2013-07-06 06:55:00,
2013-07-06 03:05:00,77.2,72.0,30.09,South,178,0.0,0.0,84,0.00,,,0.00,Wunderground v.1.15,2013-07-06 07:05:00,
2013-07-06 03:15:00,76.8,72.3,30.09,South,178,0.0,0.0,86,0.00,,,0.00,Wunderground v.1.15,2013-07-06 07:15:00,
2013-07-06 03:25:00,76.3,72.1,30.09,South,178,0.0,0.0,87,0.00,,,0.00,Wunderground v.1.15,2013-07-06 07:25:00,
2013-07-06 03:35:00,76.1,72.3,30.09,South,178,0.0,0.0,88,0.00,,,0.00,Wunderground v.1.15,2013-07-06 07:35:00,
2013-07-06 03:45:00,76.0,72.2,30.09,South,178,0.0,0.0,88,0.00,,,0.00,Wunderground v.1.15,2013-07-06 07:45:00,
2013-07-06 03:55:00,75.6,71.8,30.09,South,178,0.0,0.0,88,0.00,,,0.00,Wunderground v.1.15,2013-07-06 07:55:00,
2013-07-06 04:05:00,75.6,72.1,30.09,South,178,0.0,0.0,89,0.00,,,0.00,Wunderground v.1.15,2013-07-06 08:05:00,
2013-07-06 04:15:00,75.4,72.3,30.09,South,178,0.0,0.0,90,0.00,,,0.00,Wunderground v.1.15,2013-07-06 08:15:00,
2013-07-06 04:25:00,75.3,72.2,30.09,South,178,0.0,0.0,90,0.00,,,0.00,Wunderground v.1.15,2013-07-06 08:25:00,
2013-07-06 04:35:00,75.3,72.2,30.09,South,178,0.0,0.0,90,0.00,,,0.00,Wunderground v.1.15,2013-07-06 08:35:00,
2013-07-06 04:45:00,75.3,72.2,30.09,South,178,0.0,0.0,90,0.00,,,0.00,Wunderground v.1.15,2013-07-06 08:45:00,
2013-07-06 04:55:00,75.3,72.2,30.09,South,178,0.0,0.0,90,0.00,,,0.00,Wunderground v.1.15,2013-07-06 08:55:00,
2013-07-06 05:05:00,75.3,72.2,30.09,South,178,0.0,0.0,90,0.00,,,0.00,Wunderground v.1.15,2013-07-06 09:05:00,
2013-07-06 05:15:00,75.4,72.3,30.09,South,178,0.0,0.0,90,0.00,,,0.00,Wunderground v.1.15,2013-07-06 09:15:00,
2013-07-06 05:25:00,75.3,72.2,30.09,South,178,0.0,0.0,90,0.00,,,0.00,Wunderground v.1.15,2013-07-06 09:25:00,
2013-07-06 05:35:00,75.3,72.2,30.09,South,178,0.0,0.0,90,0.00,,,0.00,Wunderground v.1.15,2013-07-06 09:35:00,
2013-07-06 05:45:00,75.1,72.0,30.09,South,178,0.0,0.0,90,0.00,,,0.00,Wunderground v.1.15,2013-07-06 09:45:00,
2013-07-06 05:55:00,74.9,72.1,30.09,South,178,0.0,0.0,91,0.00,,,0.00,Wunderground v.1.15,2013-07-06 09:55:00,
2013-07-06 06:05:00,74.9,72.1,30.09,South,178,0.0,0.0,91,0.00,,,0.00,Wunderground v.1.15,2013-07-06 10:05:00,
2013-07-06 06:15:00,74.7,72.2,30.09,South,178,0.0,0.0,92,0.00,,,0.00,Wunderground v.1.15,2013-07-06 10:15:00,
2013-07-06 06:25:00,74.9,72.4,30.10,South,178,0.0,0.0,92,0.00,,,0.00,Wunderground v.1.15,2013-07-06 10:25:00,
2013-07-06 06:35:00,75.1,72.6,30.10,South,178,0.0,0.0,92,0.00,,,0.00,Wunderground v.1.15,2013-07-06 10:35:00,
2013-07-06 06:45:00,75.3,73.1,30.10,South,178,0.0,0.0,93,0.00,,,0.00,Wunderground v.1.15,2013-07-06 10:45:00,
2013-07-06 06:55:00,75.8,73.6,30.10,South,178,0.0,0.0,93,0.00,,,0.00,Wunderground v.1.15,2013-07-06 10:55:00,
2013-07-06 07:05:00,76.0,73.5,30.10,South,178,0.0,0.0,92,0.00,,,0.00,Wunderground v.1.15,2013-07-06 11:05:00,
2013-07-06 07:15:00,76.5,74.0,30.10,South,178,0.0,0.0,92,0.00,,,0.00,Wunderground v.1.15,2013-07-06 11:15:00,
2013-07-06 07:25:00,76.8,74.0,30.10,South,178,0.0,0.0,91,0.00,,,0.00,Wunderground v.1.15,2013-07-06 11:25:00,
2013-07-06 07:35:00,77.2,74.0,30.10,South,178,0.0,2.0,90,0.00,,,0.00,Wunderground v.1.15,2013-07-06 11:35:00,
2013-07-06 07:45:00,77.0,73.8,30.10,South,178,1.0,1.0,90,0.00,,,0.00,Wunderground v.1.15,2013-07-06 11:45:00,
2013-07-06 07:55:00,77.6,74.1,30.10,South,178,1.0,1.0,89,0.00,,,0.00,Wunderground v.1.15,2013-07-06 11:55:00,
2013-07-06 08:05:00,78.1,73.9,30.10,South,178,1.0,1.0,87,0.00,,,0.00,Wunderground v.1.15,2013-07-06 12:05:00,
2013-07-06 08:15:00,78.6,74.1,30.10,South,179,1.0,1.0,86,0.00,,,0.00,Wunderground v.1.15,2013-07-06 12:15:00,
2013-07-06 08:25:00,79.0,73.7,30.10,South,173,1.0,1.0,84,0.00,,,0.00,Wunderground v.1.15,2013-07-06 12:25:00,
2013-07-06 08:35:00,79.6,74.0,30.10,South,173,0.0,1.0,83,0.00,,,0.00,Wunderground v.1.15,2013-07-06 12:35:00,
2013-07-06 08:45:00,79.9,73.9,30.10,NW,309,1.0,1.0,82,0.00,,,0.00,Wunderground v.1.15,2013-07-06 12:45:00,
2013-07-06 08:55:00,80.5,74.1,30.10,NNW,329,1.0,1.0,81,0.00,,,0.00,Wunderground v.1.15,2013-07-06 12:55:00,
2013-07-06 09:06:00,80.9,74.5,30.10,NNW,329,1.0,1.0,81,0.00,,,0.00,Wunderground v.1.15,2013-07-06 13:06:00,
2013-07-06 09:15:00,81.1,74.0,30.10,NNW,348,1.0,1.0,79,0.00,,,0.00,Wunderground v.1.15,2013-07-06 13:15:00,
2013-07-06 09:25:00,81.4,73.9,30.09,North,360,1.0,1.0,78,0.00,,,0.00,Wunderground v.1.15,2013-07-06 13:25:00,
2013-07-06 09:35:00,81.8,74.6,30.09,North,355,0.0,1.0,79,0.00,,,0.00,Wunderground v.1.15,2013-07-06 13:35:00,
2013-07-06 09:45:00,82.4,74.5,30.09,WSW,252,1.0,2.0,77,0.00,,,0.00,Wunderground v.1.15,2013-07-06 13:45:00,
2013-07-06 09:50:00,82.6,74.3,30.09,NW,325,1.0,1.0,76,0.00,,,0.00,Wunderground v.1.15,2013-07-06 13:50:00,
2013-07-06 09:55:00,83.0,73.9,30.09,NW,326,1.0,1.0,74,0.00,,,0.00,Wunderground v.1.15,2013-07-06 13:55:00,
2013-07-06 10:05:00,84.1,74.1,30.08,NW,326,1.0,1.0,72,0.00,,,0.00,Wunderground v.1.15,2013-07-06 14:05:00,
2013-07-06 10:15:00,84.7,75.1,30.08,NNW,327,1.0,1.0,73,0.00,,,0.00,Wunderground v.1.15,2013-07-06 14:15:00,
2013-07-06 10:25:00,85.3,73.5,30.08,North,5,1.0,1.0,68,0.00,,,0.00,Wunderground v.1.15,2013-07-06 14:25:00,
2013-07-06 10:35:00,85.5,73.3,30.08,North,11,1.0,2.0,67,0.00,,,0.00,Wunderground v.1.15,2013-07-06 14:35:00,
2013-07-06 10:45:00,85.9,75.4,30.08,NNE,23,0.0,2.0,71,0.00,,,0.00,Wunderground v.1.15,2013-07-06 14:45:00,
2013-07-06 10:55:00,86.5,76.0,30.07,SSE,151,1.0,1.0,71,0.00,,,0.00,Wunderground v.1.15,2013-07-06 14:55:00,
2013-07-06 11:05:00,85.7,74.8,30.07,NW,319,0.0,0.0,70,0.00,,,0.00,Wunderground v.1.15,2013-07-06 15:05:00,
2013-07-06 11:15:00,86.5,76.4,30.07,NW,315,0.0,0.0,72,0.00,,,0.00,Wunderground v.1.15,2013-07-06 15:15:00,
2013-07-06 11:25:00,85.9,75.8,30.07,NW,315,1.0,1.0,72,0.00,,,0.00,Wunderground v.1.15,2013-07-06 15:25:00,
2013-07-06 11:35:00,88.0,75.2,30.07,NW,311,1.0,1.0,66,0.00,,,0.00,Wunderground v.1.15,2013-07-06 15:35:00,
2013-07-06 11:45:00,88.4,76.0,30.07,NW,311,1.0,1.0,67,0.00,,,0.00,Wunderground v.1.15,2013-07-06 15:45:00,
2013-07-06 11:55:00,89.3,75.0,30.07,WNW,294,1.0,1.0,63,0.00,,,0.00,Wunderground v.1.15,2013-07-06 15:55:00,
2013-07-06 12:15:00,89.5,74.3,30.07,West,267,1.0,1.0,61,0.00,,,0.00,Wunderground v.1.15,2013-07-06 16:15:00,
2013-07-06 12:25:00,90.5,74.7,30.07,West,270,1.0,3.0,60,0.00,,,0.00,Wunderground v.1.15,2013-07-06 16:25:00,
2013-07-06 12:35:00,90.7,76.4,30.06,NW,310,1.0,1.0,63,0.00,,,0.00,Wunderground v.1.15,2013-07-06 16:35:00,
2013-07-06 12:55:00,88.6,72.9,30.06,NNE,29,1.0,1.0,60,0.00,,,0.00,Wunderground v.1.15,2013-07-06 16:55:00,
2013-07-06 13:00:00,88.8,72.6,30.06,NE,41,1.0,1.0,59,0.00,,,0.00,Wunderground v.1.15,2013-07-06 17:00:00,
2013-07-06 13:10:00,89.7,71.9,30.05,WNW,288,1.0,1.0,56,0.00,,,0.00,Wunderground v.1.15,2013-07-06 17:10:00,
2013-07-06 13:15:00,89.3,75.0,30.05,WNW,290,1.0,1.0,63,0.00,,,0.00,Wunderground v.1.15,2013-07-06 17:15:00,
2013-07-06 13:35:00,90.1,74.8,30.05,WNW,292,1.0,2.0,61,0.00,,,0.00,Wunderground v.1.15,2013-07-06 17:35:00,
2013-07-06 13:45:00,91.0,74.7,30.05,WNW,290,1.0,2.0,59,0.00,,,0.00,Wunderground v.1.15,2013-07-06 17:45:00,
2013-07-06 13:50:00,90.3,75.5,30.04,WNW,303,1.0,1.0,62,0.00,,,0.00,Wunderground v.1.15,2013-07-06 17:50:00,
2013-07-06 14:15:00,90.7,74.9,30.04,South,169,2.0,3.0,60,0.00,,,0.00,Wunderground v.1.15,2013-07-06 18:15:00,
2013-07-06 14:25:00,89.9,73.1,30.04,NW,306,1.0,3.0,58,0.00,,,0.00,Wunderground v.1.15,2013-07-06 18:25:00,
2013-07-06 14:40:00,90.1,74.3,30.03,North,11,1.0,1.0,60,0.00,,,0.00,Wunderground v.1.15,2013-07-06 18:40:00,
2013-07-06 14:45:00,90.1,74.8,30.03,ENE,61,2.0,2.0,61,0.00,,,0.00,Wunderground v.1.15,2013-07-06 18:45:00,
2013-07-06 14:55:00,89.7,74.0,30.03,NW,317,1.0,7.0,60,0.00,,,0.00,Wunderground v.1.15,2013-07-06 18:55:00,
2013-07-06 15:05:00,88.8,73.1,30.03,West,280,1.0,1.0,60,0.00,,,0.00,Wunderground v.1.15,2013-07-06 19:05:00,
2013-07-06 15:30:00,88.0,72.9,30.03,NW,321,2.0,2.0,61,0.00,,,0.00,Wunderground v.1.15,2013-07-06 19:30:00,
2013-07-06 15:35:00,88.2,73.0,30.02,NW,321,1.0,2.0,61,0.00,,,0.00,Wunderground v.1.15,2013-07-06 19:35:00,
2013-07-06 15:45:00,88.4,72.2,30.02,NW,322,1.0,2.0,59,0.00,,,0.00,Wunderground v.1.15,2013-07-06 19:45:00,
2013-07-06 15:55:00,88.4,72.7,30.02,SW,224,1.0,4.0,60,0.00,,,0.00,Wunderground v.1.15,2013-07-06 19:55:00,
2013-07-06 16:10:00,87.8,72.7,30.02,WSW,242,0.0,1.0,61,0.00,,,0.00,Wunderground v.1.15,2013-07-06 20:10:00,
2013-07-06 16:15:00,87.8,72.7,30.02,SW,232,1.0,1.0,61,0.00,,,0.00,Wunderground v.1.15,2013-07-06 20:15:00,
2013-07-06 16:25:00,87.4,72.8,30.01,SSE,163,1.0,1.0,62,0.00,,,0.00,Wunderground v.1.15,2013-07-06 20:25:00,
2013-07-06 16:40:00,87.2,71.6,30.01,South,177,1.0,1.0,60,0.00,,,0.00,Wunderground v.1.15,2013-07-06 20:40:00,
2013-07-06 16:45:00,87.4,72.8,30.01,West,279,1.0,2.0,62,0.00,,,0.00,Wunderground v.1.15,2013-07-06 20:45:00,
2013-07-06 17:00:00,87.2,74.0,30.01,WSW,254,1.0,1.0,65,0.00,,,0.00,Wunderground v.1.15,2013-07-06 21:00:00,
2013-07-06 17:05:00,87.4,73.7,30.01,WNW,295,1.0,1.0,64,0.00,,,0.00,Wunderground v.1.15,2013-07-06 21:05:00,
2013-07-06 17:15:00,87.2,73.5,30.01,West,265,1.0,2.0,64,0.00,,,0.00,Wunderground v.1.15,2013-07-06 21:15:00,
2013-07-06 17:35:00,86.3,72.7,30.00,SSW,211,1.0,1.0,64,0.00,,,0.00,Wunderground v.1.15,2013-07-06 21:35:00,
2013-07-06 17:55:00,86.1,73.0,29.99,SW,215,0.0,1.0,65,0.00,,,0.00,Wunderground v.1.15,2013-07-06 21:55:00,
2013-07-06 18:10:00,85.9,73.2,29.99,WNW,292,0.0,0.0,66,0.00,,,0.00,Wunderground v.1.15,2013-07-06 22:10:00,
2013-07-06 18:15:00,85.7,73.0,29.99,WNW,292,0.0,0.0,66,0.00,,,0.00,Wunderground v.1.15,2013-07-06 22:15:00,
2013-07-06 18:30:00,85.7,73.0,29.99,WNW,300,1.0,1.0,66,0.00,,,0.00,Wunderground v.1.15,2013-07-06 22:30:00,
2013-07-06 18:35:00,85.7,73.0,29.99,WNW,300,1.0,1.0,66,0.00,,,0.00,Wunderground v.1.15,2013-07-06 22:35:00,
2013-07-06 18:45:00,85.3,72.6,29.99,WNW,300,0.0,1.0,66,0.00,,,0.00,Wunderground v.1.15,2013-07-06 22:45:00,
2013-07-06 19:10:00,84.9,71.8,29.99,WNW,300,0.0,1.0,65,0.00,,,0.00,Wunderground v.1.15,2013-07-06 23:10:00,
2013-07-06 19:20:00,84.9,71.4,29.98,WNW,300,0.0,0.0,64,0.00,,,0.00,Wunderground v.1.15,2013-07-06 23:20:00,
2013-07-06 19:30:00,84.7,71.6,29.98,WNW,300,0.0,0.0,65,0.00,,,0.00,Wunderground v.1.15,2013-07-06 23:30:00,
2013-07-06 19:35:00,84.5,71.4,29.98,WNW,300,0.0,0.0,65,0.00,,,0.00,Wunderground v.1.15,2013-07-06 23:35:00,
2013-07-06 19:45:00,84.5,71.0,29.98,WNW,300,0.0,0.0,64,0.00,,,0.00,Wunderground v.1.15,2013-07-06 23:45:00,
2013-07-06 19:55:00,84.3,71.2,29.98,WNW,300,0.0,0.0,65,0.00,,,0.00,Wunderground v.1.15,2013-07-06 23:55:00,
2013-07-06 20:06:00,84.0,71.9,29.98,WNW,300,0.0,0.0,67,0.00,,,0.00,Wunderground v.1.15,2013-07-07 00:06:00,
2013-07-06 20:15:00,84.0,71.9,29.98,WNW,300,0.0,0.0,67,0.00,,,0.00,Wunderground v.1.15,2013-07-07 00:15:00,
2013-07-06 20:35:00,83.2,72.0,29.99,WNW,300,0.0,0.0,69,0.00,,,0.00,Wunderground v.1.15,2013-07-07 00:35:00,
2013-07-06 20:45:00,82.6,71.8,29.99,WNW,300,0.0,0.0,70,0.00,,,0.00,Wunderground v.1.15,2013-07-07 00:45:00,
2013-07-06 20:55:00,82.2,71.9,29.99,WNW,300,0.0,0.0,71,0.00,,,0.00,Wunderground v.1.15,2013-07-07 00:55:00,
2013-07-06 21:05:00,82.0,71.7,29.99,WNW,300,0.0,0.0,71,0.00,,,0.00,Wunderground v.1.15,2013-07-07 01:05:00,
2013-07-06 21:25:00,81.6,71.7,30.00,WNW,300,0.0,0.0,72,0.00,,,0.00,Wunderground v.1.15,2013-07-07 01:25:00,
2013-07-06 21:45:00,81.1,72.0,30.00,WNW,300,0.0,0.0,74,0.00,,,0.00,Wunderground v.1.15,2013-07-07 01:45:00,
2013-07-06 22:00:00,80.7,72.0,30.00,WNW,300,0.0,0.0,75,0.00,,,0.00,Wunderground v.1.15,2013-07-07 02:00:00,
2013-07-06 22:20:00,80.3,72.0,30.01,WNW,300,0.0,0.0,76,0.00,,,0.00,Wunderground v.1.15,2013-07-07 02:20:00,
2013-07-06 22:25:00,80.1,71.8,30.01,WNW,300,0.0,0.0,76,0.00,,,0.00,Wunderground v.1.15,2013-07-07 02:25:00,
2013-07-06 22:35:00,79.9,72.0,30.01,WNW,300,0.0,0.0,77,0.00,,,0.00,Wunderground v.1.15,2013-07-07 02:35:00,
2013-07-06 22:40:00,79.9,72.4,30.01,WNW,300,0.0,0.0,78,0.00,,,0.00,Wunderground v.1.15,2013-07-07 02:40:00,
2013-07-06 22:50:00,79.8,72.3,30.01,WNW,300,0.0,0.0,78,0.00,,,0.00,Wunderground v.1.15,2013-07-07 02:50:00,
2013-07-06 23:00:00,79.6,72.5,30.01,WNW,300,0.0,0.0,79,0.00,,,0.00,Wunderground v.1.15,2013-07-07 03:00:00,
2013-07-06 23:06:00,79.6,72.5,30.01,WNW,300,0.0,0.0,79,0.00,,,0.00,Wunderground v.1.15,2013-07-07 03:06:00,
2013-07-06 23:25:00,79.0,72.3,30.02,WNW,300,0.0,0.0,80,0.00,,,0.00,Wunderground v.1.15,2013-07-07 03:25:00,
2013-07-06 23:35:00,78.8,72.5,30.02,WNW,300,0.0,0.0,81,0.00,,,0.00,Wunderground v.1.15,2013-07-07 03:35:00,
2013-07-06 23:45:00,78.8,72.5,30.02,WNW,300,0.0,0.0,81,0.00,,,0.00,Wunderground v.1.15,2013-07-07 03:45:00,
2013-07-06 23:55:00,78.6,72.3,30.02,WNW,300,0.0,0.0,81,0.00,,,0.00,Wunderground v.1.15,2013-07-07 03:55:00,